createdAt,value
2023-01-12T00:02:14.947Z,1.30
2023-01-12T00:05:02.089Z,1.20
2023-01-12T00:07:49.049Z,1.40
2023-01-12T00:10:35.995Z,1.50
2023-01-12T00:13:22.926Z,1.23
2023-01-12T00:16:37.841Z,1.27
2023-01-12T00:19:24.899Z,1.00
2023-01-12T00:22:12.591Z,1.67
2023-01-12T00:24:59.614Z,1.43
2023-01-12T00:27:49.286Z,1.10
2023-01-12T00:30:36.228Z,1.23
2023-01-12T00:33:23.131Z,1.33
2023-01-12T00:36:19.834Z,1.47
2023-01-12T00:39:07.115Z,1.67
2023-01-12T00:42:12.396Z,1.33
2023-01-12T00:45:17.851Z,1.20
2023-01-12T00:48:05.037Z,1.27
2023-01-12T00:50:51.990Z,1.70
2023-01-12T00:53:39.032Z,1.43
2023-01-12T00:56:26.074Z,1.57
2023-01-12T00:59:13.082Z,1.10
2023-01-12T01:02:00.101Z,1.20
2023-01-12T01:04:47.072Z,1.00
2023-01-12T01:07:34.681Z,1.60
2023-01-12T01:10:21.629Z,1.27
2023-01-12T01:13:08.563Z,1.30
2023-01-12T01:15:55.537Z,1.40
2023-01-12T01:18:42.999Z,1.00
2023-01-12T01:21:30.465Z,1.10
2023-01-12T01:24:17.611Z,1.30
2023-01-12T01:27:04.764Z,1.13
2023-01-12T01:29:51.677Z,1.10
2023-01-12T01:32:38.599Z,1.03
2023-01-12T01:35:25.479Z,1.20
2023-01-12T01:38:15.774Z,1.13
2023-01-12T01:41:03.975Z,0.90
2023-01-12T01:44:09.363Z,0.87
2023-01-12T01:47:02.214Z,1.17
2023-01-12T01:49:55.238Z,1.00
2023-01-12T01:52:49.457Z,1.00
2023-01-12T01:55:42.469Z,1.00
2023-01-12T01:58:36.644Z,0.90
2023-01-12T02:01:24.430Z,1.10
2023-01-12T02:04:11.883Z,0.90
2023-01-12T02:07:01.517Z,1.27
2023-01-12T02:09:48.459Z,0.97
2023-01-12T02:12:54.139Z,1.00
2023-01-12T02:16:23.407Z,1.07
2023-01-12T02:19:52.309Z,0.90
2023-01-12T02:23:15.495Z,0.90
2023-01-12T02:26:36.734Z,0.70
2023-01-12T02:30:00.864Z,1.20
2023-01-12T02:33:27.918Z,0.90
2023-01-12T02:36:35.204Z,1.07
2023-01-12T02:39:42.528Z,0.97
2023-01-12T02:42:41.625Z,0.90
2023-01-12T02:45:42.860Z,0.80
2023-01-12T02:48:55.932Z,1.20
2023-01-12T02:52:07.465Z,0.70
2023-01-12T02:54:57.322Z,1.03
2023-01-12T02:57:46.287Z,0.80
2023-01-12T03:00:38.169Z,0.70
2023-01-12T03:03:26.210Z,1.00
2023-01-12T03:06:17.566Z,1.17
2023-01-12T03:09:04.520Z,1.10
2023-01-12T03:11:54.526Z,0.90
2023-01-12T03:14:45.791Z,0.70
2023-01-12T03:17:44.330Z,1.00
2023-01-12T03:20:36.126Z,1.00
2023-01-12T03:23:29.873Z,0.70
2023-01-12T03:26:23.269Z,0.80
2023-01-12T03:29:20.367Z,0.80
2023-01-12T03:32:07.444Z,0.90
2023-01-12T03:34:54.940Z,1.23
2023-01-12T03:37:51.570Z,0.80
2023-01-12T03:40:46.269Z,1.10
2023-01-12T03:43:42.637Z,0.80
2023-01-12T03:46:37.783Z,1.00
2023-01-12T03:49:36.471Z,0.93
2023-01-12T03:52:25.756Z,0.97
2023-01-12T03:55:16.869Z,1.00
2023-01-12T03:58:04.918Z,1.00
2023-01-12T04:00:52.168Z,1.00
2023-01-12T04:03:39.219Z,0.90
2023-01-12T04:06:26.229Z,1.10
2023-01-12T04:09:13.216Z,1.03
2023-01-12T04:12:12.330Z,1.00
2023-01-12T04:14:59.356Z,1.20
2023-01-12T04:17:46.330Z,0.83
2023-01-12T04:20:33.282Z,1.23
2023-01-12T04:23:20.269Z,1.20
2023-01-12T04:26:07.199Z,1.20
2023-01-12T04:28:54.226Z,1.10
2023-01-12T04:31:41.217Z,0.97
2023-01-12T04:34:28.206Z,1.43
2023-01-12T04:37:15.308Z,1.10
2023-01-12T04:40:02.294Z,1.20
2023-01-12T04:43:11.986Z,0.97
2023-01-12T04:45:59.092Z,1.30
2023-01-12T04:48:46.135Z,1.00
2023-01-12T04:51:33.160Z,1.17
2023-01-12T04:54:20.091Z,1.33
2023-01-12T04:57:07.112Z,1.00
2023-01-12T04:59:54.146Z,1.30
2023-01-12T05:02:41.161Z,1.20
2023-01-12T05:05:30.171Z,1.07
2023-01-12T05:08:35.675Z,1.27
2023-01-12T05:11:28.493Z,0.93
2023-01-12T05:14:15.503Z,1.30
2023-01-12T05:17:02.635Z,1.00
2023-01-12T05:19:49.674Z,1.10
2023-01-12T05:22:36.626Z,1.17
2023-01-12T05:25:23.628Z,1.40
2023-01-12T05:28:10.622Z,1.37
2023-01-12T05:31:07.544Z,1.20
2023-01-12T05:33:54.608Z,1.30
2023-01-12T05:36:41.485Z,1.23
2023-01-12T05:39:28.535Z,1.03
2023-01-12T05:42:34.044Z,1.30
2023-01-12T05:45:21.029Z,1.20
2023-01-12T05:48:09.536Z,1.47
2023-01-12T05:51:01.183Z,1.10
2023-01-12T05:53:48.902Z,1.03
2023-01-12T05:56:35.875Z,1.10
2023-01-12T05:59:22.860Z,1.00
2023-01-12T06:02:12.161Z,0.90
2023-01-12T06:04:59.176Z,1.13
2023-01-12T06:07:46.332Z,1.17
2023-01-12T06:10:34.494Z,1.33
2023-01-12T06:13:40.054Z,1.10
2023-01-12T06:16:28.071Z,1.03
2023-01-12T06:19:14.976Z,0.90
2023-01-12T06:22:02.017Z,1.10
2023-01-12T06:24:49.250Z,0.93
2023-01-12T06:27:38.259Z,1.00
2023-01-12T06:30:25.451Z,1.10
2023-01-12T06:33:13.322Z,1.10
2023-01-12T06:36:00.793Z,1.20
2023-01-12T06:38:47.812Z,1.00
2023-01-12T06:41:54.135Z,1.13
2023-01-12T06:44:41.153Z,1.03
2023-01-12T06:47:28.360Z,0.83
2023-01-12T06:50:15.799Z,1.00
2023-01-12T06:53:04.934Z,1.37
2023-01-12T06:55:52.165Z,1.00
2023-01-12T06:58:42.022Z,1.10
2023-01-12T07:01:29.157Z,1.00
2023-01-12T07:04:16.301Z,1.10
2023-01-12T07:07:03.383Z,1.27
2023-01-12T07:09:50.474Z,1.10
2023-01-12T07:12:37.959Z,1.17
2023-01-12T07:15:24.927Z,1.27
2023-01-12T07:18:11.907Z,1.20
2023-01-12T07:20:58.917Z,1.10
2023-01-12T07:23:45.940Z,1.10
2023-01-12T07:26:33.099Z,1.00
2023-01-12T07:29:20.132Z,1.03
2023-01-12T07:32:07.186Z,1.30
2023-01-12T07:34:54.168Z,1.37
2023-01-12T07:37:51.741Z,1.10
2023-01-12T07:40:38.642Z,1.03
2023-01-12T07:43:25.643Z,1.10
2023-01-12T07:46:12.770Z,1.00
2023-01-12T07:48:59.846Z,1.13
2023-01-12T07:51:46.942Z,1.10
2023-01-12T07:54:35.951Z,0.90
2023-01-12T07:57:22.985Z,1.20
2023-01-12T08:00:10.547Z,1.20
2023-01-12T08:03:12.111Z,1.00
2023-01-12T08:06:00.519Z,1.30
2023-01-12T08:08:47.571Z,1.13
2023-01-12T08:11:34.497Z,1.40
2023-01-12T08:14:28.863Z,1.00
2023-01-12T08:17:20.938Z,1.20
2023-01-12T08:20:19.723Z,1.10
2023-01-12T08:23:21.296Z,1.20
2023-01-12T08:26:15.853Z,1.10
2023-01-12T08:29:12.792Z,1.20
2023-01-12T08:32:04.667Z,1.17
2023-01-12T08:34:54.400Z,1.07
2023-01-12T08:37:41.403Z,1.13
2023-01-12T08:40:48.463Z,1.00
2023-01-12T08:43:53.866Z,1.00
2023-01-12T08:46:49.294Z,1.07
2023-01-12T08:49:36.240Z,1.03
2023-01-12T08:52:23.348Z,1.30
2023-01-12T08:55:11.292Z,1.03
2023-01-12T08:57:58.248Z,1.03
2023-01-12T09:00:45.302Z,1.00
2023-01-12T09:03:32.267Z,1.07
2023-01-12T09:06:22.147Z,1.10
2023-01-12T09:09:12.373Z,1.30
2023-01-12T09:11:59.367Z,1.20
2023-01-12T09:14:46.301Z,1.17
2023-01-12T09:17:33.397Z,1.00
2023-01-12T09:20:20.511Z,1.10
2023-01-12T09:23:07.417Z,1.37
2023-01-12T09:25:54.442Z,1.40
2023-01-12T09:28:43.021Z,0.90
2023-01-12T09:31:32.193Z,1.00
2023-01-12T09:34:19.246Z,1.30
2023-01-12T09:37:06.308Z,1.20
2023-01-12T09:39:53.328Z,1.13
2023-01-12T09:42:59.268Z,1.07
2023-01-12T09:46:05.059Z,1.20
2023-01-12T09:48:52.125Z,1.23
2023-01-12T09:52:14.591Z,1.40
2023-01-12T09:55:01.793Z,1.10
2023-01-12T09:57:55.506Z,1.10
2023-01-12T10:00:42.599Z,1.13
2023-01-12T10:03:38.410Z,1.10
2023-01-12T10:06:25.661Z,0.90
2023-01-12T10:09:18.667Z,1.20
2023-01-12T10:12:28.360Z,1.27
2023-01-12T10:16:02.850Z,1.20
2023-01-12T10:18:56.416Z,0.83
2023-01-12T10:21:43.664Z,1.00
2023-01-12T10:24:30.748Z,1.00
2023-01-12T10:27:17.789Z,1.20
2023-01-12T10:30:15.781Z,1.20
2023-01-12T10:33:23.194Z,1.00
2023-01-12T10:36:19.564Z,1.20
2023-01-12T10:39:30.963Z,1.00
2023-01-12T10:42:43.805Z,1.00
2023-01-12T10:45:30.942Z,0.90
2023-01-12T10:48:22.282Z,1.20
2023-01-12T10:51:20.126Z,1.20
2023-01-12T10:54:17.563Z,1.13
2023-01-12T10:57:19.905Z,0.90
2023-01-12T11:00:20.441Z,1.03
2023-01-12T11:03:29.154Z,0.90
2023-01-12T11:06:30.494Z,0.80
2023-01-12T11:09:25.587Z,1.03
2023-01-12T11:12:24.858Z,1.03
2023-01-12T11:15:15.148Z,0.93
2023-01-12T11:18:32.188Z,0.80
2023-01-12T11:21:24.775Z,1.40
2023-01-12T11:24:17.271Z,1.00
2023-01-12T11:27:12.587Z,1.00
2023-01-12T11:30:07.579Z,0.80
2023-01-12T11:33:15.845Z,1.00
2023-01-12T11:36:08.315Z,0.70
2023-01-12T11:39:10.531Z,0.90
2023-01-12T11:42:21.713Z,1.10
2023-01-12T11:45:21.885Z,0.97
2023-01-12T11:48:23.781Z,1.10
2023-01-12T11:51:13.276Z,0.93
2023-01-12T11:54:00.551Z,0.90
2023-01-12T11:57:22.309Z,0.90
2023-01-12T12:00:34.586Z,1.00
2023-01-12T12:03:39.074Z,1.00
2023-01-12T12:06:44.588Z,1.00
2023-01-12T12:09:59.743Z,1.30
2023-01-12T12:13:15.931Z,0.90
2023-01-12T12:16:38.413Z,1.00
2023-01-12T12:19:44.772Z,1.10
2023-01-12T12:22:34.507Z,1.00
2023-01-12T12:25:40.264Z,0.93
2023-01-12T12:28:35.506Z,1.00
2023-01-12T12:31:43.566Z,0.93
2023-01-12T12:34:55.786Z,0.90
2023-01-12T12:37:52.306Z,1.23
2023-01-12T12:41:22.957Z,0.80
2023-01-12T12:44:41.829Z,0.83
2023-01-12T12:47:35.000Z,1.00
2023-01-12T12:50:52.681Z,0.70
2023-01-12T12:53:43.382Z,0.90
2023-01-12T12:56:33.635Z,0.80
2023-01-12T12:59:52.238Z,0.87
2023-01-12T13:02:58.718Z,0.87
2023-01-12T13:05:50.874Z,0.80
2023-01-12T13:08:39.040Z,0.83
2023-01-12T13:11:54.910Z,0.80
2023-01-12T13:14:43.350Z,0.80
2023-01-12T13:17:31.590Z,1.10
2023-01-12T13:20:25.715Z,0.70
2023-01-12T13:23:44.180Z,0.90
2023-01-12T13:26:34.745Z,0.70
2023-01-12T13:29:28.010Z,0.80
2023-01-12T13:32:39.771Z,0.93
2023-01-12T13:35:35.751Z,0.80
2023-01-12T13:38:43.614Z,1.17
2023-01-12T13:41:52.801Z,0.70
2023-01-12T13:44:44.449Z,0.77
2023-01-12T13:47:33.103Z,0.70
2023-01-12T13:50:24.125Z,0.97
2023-01-12T13:53:22.231Z,0.90
2023-01-12T13:56:20.389Z,0.77
2023-01-12T13:59:15.989Z,0.93
2023-01-12T14:02:03.994Z,1.07
2023-01-12T14:05:04.229Z,0.83
2023-01-12T14:08:19.288Z,0.80
2023-01-12T14:11:24.638Z,0.87
2023-01-12T14:14:39.156Z,0.87
2023-01-12T14:17:48.702Z,0.70
2023-01-12T14:20:46.913Z,0.80
2023-01-12T14:23:33.973Z,0.70
2023-01-12T14:26:23.870Z,0.50
2023-01-12T14:29:11.533Z,0.83
2023-01-12T14:31:58.537Z,0.90
2023-01-12T14:34:54.937Z,0.90
2023-01-12T14:37:42.495Z,1.00
2023-01-12T14:40:32.560Z,0.60
2023-01-12T14:43:38.287Z,0.60
2023-01-12T14:46:31.479Z,0.80
2023-01-12T14:49:21.763Z,0.80
2023-01-12T14:52:17.515Z,0.70
2023-01-12T14:55:52.973Z,0.60
2023-01-12T14:58:40.039Z,0.57
2023-01-12T15:01:38.724Z,0.60
2023-01-12T15:04:25.873Z,0.70
2023-01-12T15:07:18.801Z,0.90
2023-01-12T15:10:08.726Z,0.67
2023-01-12T15:12:57.631Z,0.50
2023-01-12T15:16:03.368Z,0.80
2023-01-12T15:19:09.289Z,0.50
2023-01-12T15:22:16.358Z,0.60
2023-01-12T15:25:31.433Z,0.60
2023-01-12T15:28:18.357Z,0.60
2023-01-12T15:31:05.345Z,0.73
2023-01-12T15:33:52.510Z,0.50
2023-01-12T15:36:39.421Z,0.50
2023-01-12T15:39:26.353Z,0.63
2023-01-12T15:42:17.809Z,0.60
2023-01-12T15:45:16.490Z,0.87
2023-01-12T15:48:04.637Z,9.63
2023-01-12T15:50:51.576Z,6.80
2023-01-12T15:53:38.479Z,4.80
2023-01-12T15:56:25.692Z,1.83
2023-01-12T15:59:12.659Z,0.80
2023-01-12T16:01:59.993Z,0.77
2023-01-12T16:04:47.046Z,0.80
2023-01-12T16:07:34.050Z,0.67
2023-01-12T16:10:22.285Z,0.83
2023-01-12T16:13:11.775Z,0.70
2023-01-12T16:15:58.691Z,0.70
2023-01-12T16:18:45.644Z,0.80
2023-01-12T16:21:34.103Z,0.57
2023-01-12T16:24:21.424Z,0.80
2023-01-12T16:27:08.515Z,0.60
2023-01-12T16:29:55.600Z,0.60
2023-01-12T16:32:46.216Z,0.73
2023-01-12T16:35:33.425Z,0.67
2023-01-12T16:38:20.381Z,0.70
2023-01-12T16:41:11.233Z,0.63
2023-01-12T16:43:58.821Z,0.63
2023-01-12T16:46:48.615Z,0.67
2023-01-12T16:49:36.288Z,0.60
2023-01-12T16:52:23.372Z,0.80
2023-01-12T16:55:10.376Z,0.60
2023-01-12T16:57:57.278Z,0.70
2023-01-12T17:00:44.685Z,0.60
2023-01-12T17:03:31.986Z,0.80
2023-01-12T17:06:20.958Z,0.70
2023-01-12T17:09:08.294Z,0.87
2023-01-12T17:11:55.787Z,0.70
2023-01-12T17:14:42.988Z,0.70
2023-01-12T17:17:30.056Z,0.70
2023-01-12T17:20:17.560Z,0.80
2023-01-12T17:23:05.446Z,0.80
2023-01-12T17:25:53.431Z,0.70
2023-01-12T17:28:41.935Z,0.90
2023-01-12T17:31:29.353Z,0.80
2023-01-12T17:34:16.595Z,0.53
2023-01-12T17:37:04.044Z,0.80
2023-01-12T17:39:51.063Z,0.70
2023-01-12T17:42:56.640Z,0.70
2023-01-12T17:45:43.722Z,0.70
2023-01-12T17:48:30.705Z,0.90
2023-01-12T17:51:17.745Z,0.83
2023-01-12T17:54:07.981Z,0.90
2023-01-12T17:56:54.901Z,0.70
2023-01-12T17:59:41.944Z,0.60
2023-01-12T18:02:28.907Z,0.80
2023-01-12T18:05:16.127Z,0.80
2023-01-12T18:08:03.067Z,0.63
2023-01-12T18:10:50.034Z,0.70
2023-01-12T18:13:37.867Z,0.70
2023-01-12T18:16:25.472Z,0.70
2023-01-12T18:19:14.893Z,0.83
2023-01-12T18:22:06.806Z,0.90
2023-01-12T18:24:53.810Z,0.80
2023-01-12T18:27:40.912Z,0.80
2023-01-12T18:30:27.880Z,0.90
2023-01-12T18:33:14.836Z,0.60
2023-01-12T18:36:07.240Z,0.70
2023-01-12T18:38:55.240Z,0.90
2023-01-12T18:42:00.828Z,0.87
2023-01-12T18:44:48.506Z,0.87
2023-01-12T18:47:54.143Z,0.97
2023-01-12T18:51:19.455Z,0.60
2023-01-12T18:54:06.400Z,0.53
2023-01-12T18:56:53.607Z,0.63
2023-01-12T18:59:42.056Z,0.70
2023-01-12T19:02:29.878Z,0.90
2023-01-12T19:05:34.842Z,0.87
2023-01-12T19:08:40.154Z,0.83
2023-01-12T19:11:27.100Z,0.90
2023-01-12T19:14:32.794Z,0.80
2023-01-12T19:17:32.765Z,0.60
2023-01-12T19:20:21.060Z,0.70
2023-01-12T19:23:29.829Z,0.80
2023-01-12T19:26:35.409Z,0.80
2023-01-12T19:29:22.367Z,0.67
2023-01-12T19:32:09.492Z,0.70
2023-01-12T19:35:02.258Z,0.80
2023-01-12T19:37:53.079Z,0.80
2023-01-12T19:40:54.752Z,0.80
2023-01-12T19:43:45.307Z,0.97
2023-01-12T19:46:33.201Z,0.60
2023-01-12T19:49:20.209Z,0.80
2023-01-12T19:52:07.124Z,0.77
2023-01-12T19:54:54.269Z,0.70
2023-01-12T19:57:43.028Z,0.77
2023-01-12T20:00:30.000Z,0.70
2023-01-12T20:03:19.367Z,0.83
2023-01-12T20:06:07.463Z,0.90
2023-01-12T20:08:54.866Z,0.80
2023-01-12T20:11:41.768Z,0.57
2023-01-12T20:14:29.382Z,0.73
2023-01-12T20:17:16.433Z,0.83
2023-01-12T20:20:08.080Z,0.90
2023-01-12T20:22:55.380Z,1.03
2023-01-12T20:25:43.667Z,0.80
2023-01-12T20:28:30.575Z,0.73
2023-01-12T20:31:20.236Z,0.80
2023-01-12T20:34:08.348Z,0.80
2023-01-12T20:36:55.273Z,0.90
2023-01-12T20:39:42.232Z,1.07
2023-01-12T20:42:31.627Z,0.80
2023-01-12T20:45:19.075Z,0.80
2023-01-12T20:48:06.018Z,0.83
2023-01-12T20:50:53.279Z,0.90
2023-01-12T20:53:40.250Z,0.90
2023-01-12T20:56:27.353Z,0.60
2023-01-12T20:59:15.279Z,0.90
2023-01-12T21:02:02.341Z,0.73
2023-01-12T21:04:50.062Z,0.80
2023-01-12T21:07:37.107Z,0.90
2023-01-12T21:10:24.576Z,0.80
2023-01-12T21:13:11.498Z,0.70
2023-01-12T21:16:01.267Z,0.80
2023-01-12T21:18:49.070Z,0.90
2023-01-12T21:21:36.637Z,0.77
2023-01-12T21:24:24.752Z,0.70
2023-01-12T21:27:12.591Z,0.70
2023-01-12T21:29:59.688Z,1.00
2023-01-12T21:32:47.142Z,0.90
2023-01-12T21:35:34.139Z,0.90
2023-01-12T21:38:21.153Z,0.83
2023-01-12T21:41:10.268Z,0.70
2023-01-12T21:43:57.470Z,1.20
2023-01-12T21:46:44.548Z,0.80
2023-01-12T21:49:31.532Z,0.90
2023-01-12T21:52:18.568Z,1.03
2023-01-12T21:55:05.870Z,0.90
2023-01-12T21:57:55.132Z,0.80
2023-01-12T22:00:42.117Z,0.57
2023-01-12T22:03:29.069Z,0.80
2023-01-12T22:06:16.166Z,1.00
2023-01-12T22:09:03.305Z,0.90
2023-01-12T22:11:50.317Z,0.70
2023-01-12T22:14:37.260Z,0.70
2023-01-12T22:17:24.233Z,0.70
2023-01-12T22:20:12.419Z,0.80
2023-01-12T22:22:59.729Z,0.87
2023-01-12T22:25:46.710Z,0.80
2023-01-12T22:28:34.895Z,0.80
2023-01-12T22:31:23.877Z,0.80
2023-01-12T22:34:11.335Z,0.63
2023-01-12T22:36:58.288Z,0.77
2023-01-12T22:39:45.216Z,1.00
2023-01-12T22:43:10.354Z,0.80
2023-01-12T22:46:00.337Z,0.80
2023-01-12T22:48:52.440Z,0.80
2023-01-12T22:51:39.729Z,0.73
2023-01-12T22:54:26.718Z,0.97
2023-01-12T22:57:13.957Z,0.90
2023-01-12T23:00:01.182Z,0.73
2023-01-12T23:03:00.460Z,0.83
2023-01-12T23:05:56.343Z,0.70
2023-01-12T23:08:44.866Z,0.70
2023-01-12T23:11:32.649Z,0.83
2023-01-12T23:14:20.075Z,0.63
2023-01-12T23:17:07.559Z,0.70
2023-01-12T23:19:54.769Z,0.80
2023-01-12T23:22:41.915Z,0.87
2023-01-12T23:25:29.102Z,0.70
2023-01-12T23:28:16.987Z,0.63
2023-01-12T23:31:09.664Z,0.70
2023-01-12T23:33:57.332Z,0.70
2023-01-12T23:36:44.721Z,0.90
2023-01-12T23:39:32.608Z,0.90
2023-01-12T23:42:19.753Z,0.70
2023-01-12T23:45:07.441Z,0.83
2023-01-12T23:47:54.907Z,0.60
2023-01-12T23:50:42.026Z,0.90
2023-01-12T23:53:29.994Z,0.63
2023-01-12T23:56:17.235Z,0.70
2023-01-12T23:59:04.319Z,0.60
